createdAt,value
2017-12-11T00:00:55.140Z,94907.47
2017-12-11T00:03:22.665Z,94903.61
2017-12-11T00:05:50.216Z,94914.92
2017-12-11T00:08:17.793Z,94918.67
2017-12-11T00:10:45.316Z,94922.59
2017-12-11T00:13:12.880Z,94909.23
2017-12-11T00:15:40.462Z,94896.34
2017-12-11T00:18:07.999Z,94891.10
2017-12-11T00:20:35.542Z,94892.73
2017-12-11T00:23:03.320Z,94887.48
2017-12-11T00:25:31.953Z,94886.64
2017-12-11T00:27:59.517Z,94889.78
2017-12-11T00:30:27.146Z,94892.93
2017-12-11T00:32:54.913Z,94882.48
2017-12-11T00:35:24.305Z,94887.05
2017-12-11T00:37:51.867Z,94883.98
2017-12-11T00:40:19.502Z,94875.23
2017-12-11T00:42:47.081Z,94873.30
2017-12-11T00:45:15.575Z,94864.34
2017-12-11T00:47:43.104Z,94863.67
2017-12-11T00:50:14.663Z,94846.05
2017-12-11T00:52:42.551Z,94847.67
2017-12-11T00:55:10.144Z,94854.11
2017-12-11T00:57:38.298Z,94850.86
2017-12-11T01:00:06.536Z,94854.60
2017-12-11T01:02:35.048Z,94850.59
2017-12-11T01:05:03.429Z,94858.16
2017-12-11T01:07:31.207Z,94853.63
2017-12-11T01:09:58.935Z,94860.16
2017-12-11T01:12:26.785Z,94859.95
2017-12-11T01:14:54.390Z,94861.09
2017-12-11T01:17:22.057Z,94872.11
2017-12-11T01:19:50.004Z,94894.72
2017-12-11T01:22:17.648Z,94857.16
2017-12-11T01:24:45.207Z,94859.53
2017-12-11T01:27:16.136Z,94870.30
2017-12-11T01:29:48.085Z,94835.99
2017-12-11T01:32:16.618Z,94862.08
2017-12-11T01:34:44.947Z,94858.66
2017-12-11T01:37:18.454Z,94863.50
2017-12-11T01:39:46.023Z,94865.73
2017-12-11T01:42:14.250Z,94883.09
2017-12-11T01:44:43.199Z,94880.70
2017-12-11T01:47:10.857Z,94874.98
2017-12-11T01:49:38.412Z,94862.14
2017-12-11T01:52:05.928Z,94853.73
2017-12-11T01:54:33.496Z,94850.11
2017-12-11T01:57:01.066Z,94858.17
2017-12-11T01:59:30.282Z,94863.05
2017-12-11T02:01:58.104Z,94856.93
2017-12-11T02:04:25.805Z,94845.41
2017-12-11T02:06:56.786Z,94848.63
2017-12-11T02:09:25.421Z,94843.52
2017-12-11T02:11:52.931Z,94832.52
2017-12-11T02:14:20.471Z,94821.81
2017-12-11T02:16:47.947Z,94836.88
2017-12-11T02:19:16.142Z,94835.75
2017-12-11T02:21:43.681Z,94850.33
2017-12-11T02:24:17.489Z,94854.55
2017-12-11T02:26:45.335Z,94860.73
2017-12-11T02:29:16.181Z,94857.41
2017-12-11T02:31:43.772Z,94858.56
2017-12-11T02:34:11.389Z,94856.95
2017-12-11T02:36:39.159Z,94852.34
2017-12-11T02:39:06.818Z,94860.47
2017-12-11T02:41:35.205Z,94851.33
2017-12-11T02:44:02.808Z,94842.44
2017-12-11T02:46:30.355Z,94851.11
2017-12-11T02:49:00.776Z,94845.49
2017-12-11T02:51:33.953Z,94846.26
2017-12-11T02:54:01.866Z,94844.72
2017-12-11T02:56:29.487Z,94845.27
2017-12-11T02:58:57.094Z,94853.29
2017-12-11T03:01:24.901Z,94782.55
2017-12-11T03:03:52.757Z,94850.13
2017-12-11T03:06:20.532Z,94840.66
2017-12-11T03:08:48.099Z,94846.78
2017-12-11T03:11:15.724Z,94840.42
2017-12-11T03:13:48.048Z,94851.23
2017-12-11T03:16:15.580Z,94849.61
2017-12-11T03:18:43.351Z,94850.83
2017-12-11T03:23:43.849Z,94849.06
2017-12-11T03:26:11.382Z,94850.71
2017-12-11T03:28:39.027Z,94842.01
2017-12-11T03:31:06.647Z,94826.91
2017-12-11T03:33:34.276Z,94822.38
2017-12-11T03:36:01.982Z,94820.30
2017-12-11T03:38:29.687Z,94824.63
2017-12-11T03:40:57.276Z,94815.85
2017-12-11T03:43:25.926Z,94808.06
2017-12-11T03:45:53.559Z,94806.70
2017-12-11T03:48:23.465Z,94799.47
2017-12-11T03:50:51.041Z,94795.43
2017-12-11T03:53:18.758Z,94788.75
2017-12-11T03:55:47.511Z,94791.31
2017-12-11T03:58:15.165Z,94786.69
2017-12-11T04:00:42.905Z,94799.20
2017-12-11T04:03:10.417Z,94790.20
2017-12-11T04:05:37.919Z,94789.61
2017-12-11T04:08:05.459Z,94783.44
2017-12-11T04:10:33.044Z,94774.88
2017-12-11T04:13:01.478Z,94756.64
2017-12-11T04:15:29.650Z,94751.30
2017-12-11T04:17:57.267Z,94753.81
2017-12-11T04:20:24.758Z,94743.52
2017-12-11T04:22:53.919Z,94751.84
2017-12-11T04:25:21.640Z,94744.34
2017-12-11T04:27:50.237Z,94742.39
2017-12-11T04:30:17.784Z,94709.23
2017-12-11T04:32:48.687Z,94730.27
2017-12-11T04:35:16.326Z,94735.48
2017-12-11T04:37:43.975Z,94735.55
2017-12-11T04:40:12.761Z,94737.77
2017-12-11T04:42:40.365Z,94733.95
2017-12-11T04:45:07.987Z,94723.48
2017-12-11T04:47:35.752Z,94727.52
2017-12-11T04:50:03.610Z,94731.78
2017-12-11T04:55:54.947Z,94722.89
2017-12-11T04:58:26.103Z,94724.09
2017-12-11T05:00:58.604Z,94713.80
2017-12-11T05:03:30.841Z,94709.05
2017-12-11T05:06:01.872Z,94704.56
2017-12-11T05:08:32.525Z,94701.38
2017-12-11T05:11:01.452Z,94700.06
2017-12-11T05:13:30.216Z,94688.33
2017-12-11T05:15:58.738Z,94681.13
2017-12-11T05:18:34.067Z,94662.95
2017-12-11T05:21:19.095Z,94668.76
2017-12-11T05:26:40.415Z,94675.41
2017-12-11T05:29:53.534Z,94676.91
2017-12-11T05:32:23.243Z,94667.39
2017-12-11T05:49:02.287Z,94640.36
2017-12-11T05:51:39.295Z,94607.40
2017-12-11T05:54:07.474Z,94615.23
2017-12-11T05:56:36.425Z,94611.02
2017-12-11T05:59:04.224Z,94613.02
2017-12-11T06:01:37.934Z,94611.91
2017-12-11T06:04:06.516Z,94619.20
2017-12-11T06:06:34.474Z,94614.04
2017-12-11T06:09:20.151Z,94609.81
2017-12-11T06:11:57.389Z,94625.81
2017-12-11T06:19:58.074Z,94620.91
2017-12-11T06:22:29.816Z,94613.75
2017-12-11T06:25:02.647Z,94600.08
2017-12-11T06:27:35.652Z,94586.05
2017-12-11T06:33:09.606Z,94581.67
2017-12-11T06:35:37.172Z,94569.09
2017-12-11T06:38:04.672Z,94574.43
2017-12-11T06:40:32.682Z,94554.14
2017-12-11T06:43:10.130Z,94565.37
2017-12-11T06:45:38.796Z,94563.50
2017-12-11T06:50:57.951Z,94550.98
2017-12-11T06:53:26.219Z,94534.46
2017-12-11T06:55:59.878Z,94520.30
2017-12-11T06:58:28.771Z,94520.85
2017-12-11T07:00:58.611Z,94514.45
2017-12-11T07:03:29.288Z,94531.69
2017-12-11T07:05:57.124Z,94528.34
2017-12-11T07:08:24.761Z,94527.01
2017-12-11T07:10:54.281Z,94531.62
2017-12-11T07:13:23.395Z,94521.58
2017-12-11T07:15:56.672Z,94511.59
2017-12-11T07:18:24.305Z,94528.22
2017-12-11T07:20:51.867Z,94540.95
2017-12-11T07:23:19.367Z,94555.16
2017-12-11T07:25:46.818Z,94568.49
2017-12-11T07:28:14.348Z,94567.67
2017-12-11T07:30:42.535Z,94578.55
2017-12-11T07:33:10.029Z,94582.05
2017-12-11T07:35:37.531Z,94573.45
2017-12-11T07:38:05.229Z,94589.94
2017-12-11T07:40:32.847Z,94588.33
2017-12-11T07:43:00.339Z,94591.05
2017-12-11T07:45:29.350Z,94611.28
2017-12-11T07:47:56.916Z,94611.23
2017-12-11T07:50:24.496Z,94619.87
2017-12-11T07:52:52.202Z,94617.75
2017-12-11T07:56:42.236Z,94616.84
2017-12-11T07:59:17.054Z,94590.14
2017-12-11T08:01:48.565Z,94601.30
2017-12-11T08:04:16.243Z,94597.53
2017-12-11T08:06:43.767Z,94585.01
2017-12-11T08:09:11.223Z,94578.53
2017-12-11T08:11:38.705Z,94579.14
2017-12-11T08:14:06.220Z,94580.92
2017-12-11T08:16:33.695Z,94570.64
2017-12-11T08:19:01.254Z,94575.30
2017-12-11T08:21:28.754Z,94557.88
2017-12-11T08:23:56.280Z,94536.67
2017-12-11T08:26:23.966Z,94536.16
2017-12-11T08:28:51.443Z,94536.67
2017-12-11T08:31:19.542Z,94529.30
2017-12-11T08:33:46.999Z,94525.20
2017-12-11T08:36:14.480Z,94512.86
2017-12-11T08:38:42.167Z,94514.84
2017-12-11T08:41:09.677Z,94504.36
2017-12-11T08:43:37.183Z,94513.84
2017-12-11T08:46:04.656Z,94512.31
2017-12-11T08:48:32.241Z,94520.69
2017-12-11T08:50:59.857Z,94525.50
2017-12-11T08:53:27.359Z,94528.07
2017-12-11T08:55:55.786Z,94534.41
2017-12-11T08:58:23.240Z,94527.39
2017-12-11T09:00:50.729Z,94530.20
2017-12-11T09:03:18.211Z,94519.13
2017-12-11T09:05:45.739Z,94519.61
2017-12-11T09:08:13.211Z,94525.61
2017-12-11T09:10:40.702Z,94522.50
2017-12-11T09:13:08.180Z,94512.13
2017-12-11T09:15:35.780Z,94520.69
2017-12-11T09:18:03.266Z,94533.16
2017-12-11T09:20:31.232Z,94520.48
2017-12-11T09:22:58.753Z,94514.95
2017-12-11T09:25:26.250Z,94509.01
2017-12-11T09:27:53.746Z,94516.44
2017-12-11T09:30:21.446Z,94509.15
2017-12-11T09:32:49.128Z,94514.57
2017-12-11T09:35:16.598Z,94509.35
2017-12-11T09:37:44.083Z,94493.14
2017-12-11T09:40:11.575Z,94471.61
2017-12-11T09:42:39.207Z,94465.60
2017-12-11T09:45:06.717Z,94444.23
2017-12-11T09:47:34.191Z,94432.95
2017-12-11T09:50:01.841Z,94426.91
2017-12-11T09:52:29.429Z,94420.70
2017-12-11T09:54:57.262Z,94409.58
2017-12-11T09:57:24.874Z,94398.53
2017-12-11T09:59:52.382Z,94404.60
2017-12-11T10:02:20.073Z,94402.27
2017-12-11T10:04:47.813Z,94401.77
2017-12-11T10:07:15.483Z,94393.68
2017-12-11T10:09:42.949Z,94390.34
2017-12-11T10:12:10.453Z,94394.55
2017-12-11T10:14:37.956Z,94388.19
2017-12-11T10:17:05.415Z,94378.66
2017-12-11T10:19:36.824Z,94379.14
2017-12-11T10:22:04.308Z,94381.94
2017-12-11T10:24:31.952Z,94377.10
2017-12-11T10:26:59.463Z,94362.81
2017-12-11T10:29:26.951Z,94370.87
2017-12-11T10:31:54.479Z,94360.64
2017-12-11T10:34:21.946Z,94344.91
2017-12-11T10:36:49.416Z,94367.36
2017-12-11T10:39:16.889Z,94348.44
2017-12-11T10:41:44.445Z,94343.23
2017-12-11T10:44:12.074Z,94342.27
2017-12-11T10:46:39.683Z,94342.54
2017-12-11T10:49:07.168Z,94337.45
2017-12-11T10:51:34.837Z,94348.92
2017-12-11T10:54:02.366Z,94338.23
2017-12-11T10:56:29.878Z,94331.30
2017-12-11T10:58:57.375Z,94341.38
2017-12-11T11:01:24.873Z,94319.58
2017-12-11T11:03:52.372Z,94311.25
2017-12-11T11:06:19.873Z,94293.25
2017-12-11T11:08:47.390Z,94293.05
2017-12-11T11:11:14.871Z,94297.63
2017-12-11T11:13:42.383Z,94297.96
2017-12-11T11:16:09.886Z,94285.84
2017-12-11T11:18:37.387Z,94279.82
2017-12-11T11:21:05.067Z,94305.11
2017-12-11T11:23:32.594Z,94300.91
2017-12-11T11:26:00.108Z,94279.40
2017-12-11T11:28:27.609Z,94268.56
2017-12-11T11:30:55.470Z,94255.99
2017-12-11T11:33:23.000Z,94240.91
2017-12-11T11:35:50.443Z,94235.14
2017-12-11T11:38:17.903Z,94214.77
2017-12-11T11:40:45.439Z,94193.98
2017-12-11T11:43:13.184Z,94183.76
2017-12-11T11:45:40.900Z,94190.25
2017-12-11T11:48:08.386Z,94161.86
2017-12-11T11:50:35.917Z,94159.89
2017-12-11T11:53:03.403Z,94158.25
2017-12-11T11:55:30.917Z,94172.66
2017-12-11T11:57:58.388Z,94204.36
2017-12-11T12:00:25.974Z,94247.64
2017-12-11T12:02:53.603Z,94256.38
2017-12-11T12:05:21.265Z,94263.09
2017-12-11T12:07:48.759Z,94275.27
2017-12-11T12:10:16.412Z,94270.48
2017-12-11T12:12:44.051Z,94244.59
2017-12-11T12:15:11.947Z,94233.28
2017-12-11T12:17:39.408Z,94217.40
2017-12-11T12:20:06.891Z,94196.50
2017-12-11T12:22:34.586Z,94212.79
2017-12-11T12:25:02.144Z,94240.73
2017-12-11T12:27:29.666Z,94263.59
2017-12-11T12:29:57.469Z,94270.63
2017-12-11T12:32:24.961Z,94286.30
2017-12-11T12:34:52.423Z,94288.58
2017-12-11T12:37:19.879Z,94306.56
2017-12-11T12:39:47.437Z,94317.43
2017-12-11T12:42:14.935Z,94302.14
2017-12-11T12:44:42.429Z,94306.19
2017-12-11T12:47:09.880Z,94297.88
2017-12-11T12:49:37.361Z,94301.41
2017-12-11T12:52:04.879Z,94295.89
2017-12-11T12:54:32.419Z,94313.91
2017-12-11T12:56:59.944Z,94332.57
2017-12-11T12:59:27.392Z,94349.02
2017-12-11T13:01:54.955Z,94320.27
2017-12-11T13:04:22.426Z,94336.39
2017-12-11T13:06:49.877Z,94338.03
2017-12-11T13:09:17.362Z,94339.12
2017-12-11T13:11:45.459Z,94334.06
2017-12-11T13:14:12.967Z,94341.23
2017-12-11T13:16:40.483Z,94355.92
2017-12-11T13:19:08.171Z,94363.33
2017-12-11T13:21:35.803Z,94358.20
2017-12-11T13:24:03.339Z,94360.72
2017-12-11T13:26:30.860Z,94367.97
2017-12-11T13:28:58.568Z,94361.53
2017-12-11T13:31:26.047Z,94367.06
2017-12-11T13:33:53.555Z,94366.95
2017-12-11T13:36:21.023Z,94368.09
2017-12-11T13:38:48.568Z,94358.91
2017-12-11T13:41:16.039Z,94385.63
2017-12-11T13:43:43.529Z,94399.48
2017-12-11T13:46:11.012Z,94399.60
2017-12-11T13:48:38.531Z,94406.92
2017-12-11T13:51:06.014Z,94402.38
2017-12-11T13:53:33.487Z,94396.94
2017-12-11T13:56:01.020Z,94416.28
2017-12-11T13:58:28.559Z,94423.22
2017-12-11T14:00:55.999Z,94426.36
2017-12-11T14:03:23.537Z,94426.84
2017-12-11T14:05:50.995Z,94421.87
2017-12-11T14:08:18.583Z,94428.13
2017-12-11T14:10:46.521Z,94447.41
2017-12-11T14:13:14.145Z,94458.09
2017-12-11T14:15:41.663Z,94449.52
2017-12-11T14:18:09.162Z,94449.81
2017-12-11T14:20:36.843Z,94457.80
2017-12-11T14:23:04.831Z,94467.28
2017-12-11T14:25:32.307Z,94471.30
2017-12-11T14:28:00.046Z,94489.70
2017-12-11T14:30:27.564Z,94491.56
2017-12-11T14:32:55.023Z,94496.66
2017-12-11T14:35:22.493Z,94502.56
2017-12-11T14:37:50.216Z,94512.87
2017-12-11T14:40:18.669Z,94519.13
2017-12-11T14:42:46.310Z,94521.50
2017-12-11T14:45:13.942Z,94529.73
2017-12-11T14:47:42.276Z,94525.47
2017-12-11T14:50:10.048Z,94533.84
2017-12-11T14:52:37.496Z,94534.66
2017-12-11T14:55:05.032Z,94544.33
2017-12-11T14:57:32.729Z,94553.73
2017-12-11T15:00:00.479Z,94569.56
2017-12-11T15:02:27.947Z,94593.30
2017-12-11T15:04:55.423Z,94612.86
2017-12-11T15:07:22.925Z,94608.81
2017-12-11T15:09:50.412Z,94605.16
2017-12-11T15:12:18.578Z,94613.18
2017-12-11T15:14:46.306Z,94615.52
2017-12-11T15:17:13.870Z,94617.42
2017-12-11T15:19:41.466Z,94626.35
2017-12-11T15:22:09.053Z,94640.38
2017-12-11T15:24:36.547Z,94649.98
2017-12-11T15:27:04.052Z,94660.73
2017-12-11T15:29:32.399Z,94660.34
2017-12-11T15:31:59.897Z,94661.43
2017-12-11T15:34:27.415Z,94666.36
2017-12-11T15:36:54.917Z,94657.66
2017-12-11T15:39:22.420Z,94671.09
2017-12-11T15:41:49.945Z,94678.78
2017-12-11T15:44:17.533Z,94678.98
2017-12-11T15:46:45.053Z,94685.64
2017-12-11T15:49:12.742Z,94687.00
2017-12-11T15:51:40.287Z,94691.92
2017-12-11T15:54:07.849Z,94697.55
2017-12-11T15:56:35.399Z,94701.73
2017-12-11T15:59:03.537Z,94709.80
2017-12-11T16:01:35.671Z,94706.36
2017-12-11T16:04:14.285Z,94695.89
2017-12-11T16:06:41.915Z,94662.86
2017-12-11T16:09:09.465Z,94697.63
2017-12-11T16:11:37.025Z,94693.27
2017-12-11T16:14:04.508Z,94694.91
2017-12-11T16:16:32.147Z,94696.81
2017-12-11T16:18:59.654Z,94676.43
2017-12-11T16:21:27.159Z,94688.98
2017-12-11T16:23:54.673Z,94689.94
2017-12-11T16:26:22.221Z,94692.36
2017-12-11T16:28:49.760Z,94694.15
2017-12-11T16:31:17.339Z,94689.13
2017-12-11T16:33:44.974Z,94691.46
2017-12-11T16:36:12.565Z,94695.37
2017-12-11T16:38:40.088Z,94701.05
2017-12-11T16:41:07.670Z,94699.23
2017-12-11T16:43:35.970Z,94704.91
2017-12-11T16:46:03.481Z,94697.38
2017-12-11T16:48:31.076Z,94697.05
2017-12-11T16:50:58.577Z,94708.52
2017-12-11T16:53:26.121Z,94723.00
2017-12-11T16:55:53.672Z,94720.33
2017-12-11T16:58:21.149Z,94728.01
2017-12-11T17:00:48.767Z,94733.31
2017-12-11T17:03:16.244Z,94734.47
2017-12-11T17:05:43.780Z,94736.05
2017-12-11T17:08:11.915Z,94740.38
2017-12-11T17:10:39.435Z,94743.98
2017-12-11T17:13:06.978Z,94742.00
2017-12-11T17:15:34.544Z,94738.64
2017-12-11T17:18:02.150Z,94746.23
2017-12-11T17:20:30.356Z,94747.34
2017-12-11T17:22:57.912Z,94754.69
2017-12-11T17:25:25.494Z,94761.41
2017-12-11T17:27:53.005Z,94756.41
2017-12-11T17:30:20.524Z,94759.75
2017-12-11T17:32:48.634Z,94768.05
2017-12-11T17:35:16.377Z,94775.38
2017-12-11T17:37:43.869Z,94775.34
2017-12-11T17:40:11.407Z,94782.19
2017-12-11T17:42:39.124Z,94781.92
2017-12-11T17:45:06.990Z,94791.59
2017-12-11T17:47:34.488Z,94798.41
2017-12-11T17:50:02.619Z,94804.64
2017-12-11T17:52:30.281Z,94800.49
2017-12-11T17:54:57.803Z,94806.31
2017-12-11T17:57:25.651Z,94805.64
2017-12-11T17:59:53.262Z,94804.72
2017-12-11T18:02:20.772Z,94812.72
2017-12-11T18:04:49.496Z,94824.47
2017-12-11T18:07:17.061Z,94822.80
2017-12-11T18:09:44.575Z,94818.37
2017-12-11T18:12:12.519Z,94823.59
2017-12-11T18:14:40.193Z,94823.64
2017-12-11T18:17:07.688Z,94830.88
2017-12-11T18:19:35.160Z,94831.98
2017-12-11T18:22:02.699Z,94851.17
2017-12-11T18:24:30.170Z,94861.33
2017-12-11T18:26:57.677Z,94847.42
2017-12-11T18:29:25.443Z,94871.61
2017-12-11T18:31:52.927Z,94869.70
2017-12-11T18:34:21.318Z,94873.58
2017-12-11T18:36:49.038Z,94878.52
2017-12-11T18:39:16.606Z,94870.33
2017-12-11T18:41:44.138Z,94858.92
2017-12-11T18:44:11.696Z,94863.64
2017-12-11T18:46:39.209Z,94863.60
2017-12-11T18:49:06.691Z,94867.84
2017-12-11T18:51:34.336Z,94876.40
2017-12-11T18:54:02.003Z,94876.98
2017-12-11T18:56:29.546Z,94862.03
2017-12-11T18:58:57.037Z,94861.44
2017-12-11T19:01:24.795Z,94863.61
2017-12-11T19:03:52.453Z,94870.91
2017-12-11T19:06:20.059Z,94858.77
2017-12-11T19:08:47.619Z,94854.74
2017-12-11T19:11:15.130Z,94843.92
2017-12-11T19:13:42.701Z,94832.40
2017-12-11T19:16:10.273Z,94826.02
2017-12-11T19:18:38.443Z,94817.45
2017-12-11T19:21:05.939Z,94814.11
2017-12-11T19:23:33.614Z,94814.41
2017-12-11T19:26:01.204Z,94800.57
2017-12-11T19:28:28.684Z,94813.08
2017-12-11T19:30:56.192Z,94829.98
2017-12-11T19:33:23.958Z,94825.63
2017-12-11T19:35:51.536Z,94828.97
2017-12-11T19:38:19.001Z,94839.16
2017-12-11T19:40:46.505Z,94834.26
2017-12-11T19:43:14.058Z,94832.48
2017-12-11T19:45:41.586Z,94836.61
2017-12-11T19:48:09.520Z,94844.52
2017-12-11T19:50:36.991Z,94849.73
2017-12-11T19:53:04.469Z,94851.17
2017-12-11T19:55:32.649Z,94850.56
2017-12-11T19:58:03.921Z,94849.38
2017-12-11T20:00:31.444Z,94853.33
2017-12-11T20:02:59.015Z,94859.23
2017-12-11T20:05:26.682Z,94861.14
2017-12-11T20:07:54.827Z,94864.34
2017-12-11T20:10:22.696Z,94864.52
2017-12-11T20:12:50.223Z,94864.86
2017-12-11T20:15:17.701Z,94865.23
2017-12-11T20:17:46.475Z,94869.97
2017-12-11T20:20:13.986Z,94875.03
2017-12-11T20:22:42.323Z,94879.83
2017-12-11T20:25:11.315Z,94885.77
2017-12-11T20:27:38.855Z,94895.14
2017-12-11T20:30:06.418Z,94891.45
2017-12-11T20:32:33.927Z,94896.02
2017-12-11T20:35:02.108Z,94885.88
2017-12-11T20:37:29.578Z,94894.44
2017-12-11T20:39:57.067Z,94892.83
2017-12-11T20:42:24.604Z,94896.11
2017-12-11T20:44:52.212Z,94879.16
2017-12-11T20:47:19.772Z,94897.39
2017-12-11T20:49:47.276Z,94888.60
2017-12-11T20:52:15.581Z,94893.50
2017-12-11T20:54:43.544Z,94898.59
2017-12-11T20:57:11.487Z,94906.34
2017-12-11T20:59:39.338Z,94898.55
2017-12-11T21:02:07.505Z,94903.75
2017-12-11T21:04:35.624Z,94896.06
2017-12-11T21:07:03.618Z,94910.81
2017-12-11T21:09:31.516Z,94909.63
2017-12-11T21:11:59.619Z,94906.67
2017-12-11T21:14:27.758Z,94912.77
2017-12-11T21:16:56.034Z,94929.17
2017-12-11T21:19:24.204Z,94920.09
2017-12-11T21:21:52.598Z,94914.58
2017-12-11T21:24:21.010Z,94930.34
2017-12-11T21:26:49.098Z,94926.88
2017-12-11T21:29:17.282Z,94939.04
2017-12-11T21:31:46.053Z,94938.41
2017-12-11T21:34:14.609Z,94952.16
2017-12-11T21:36:43.221Z,94941.03
2017-12-11T21:39:11.920Z,94953.39
2017-12-11T21:41:40.911Z,94946.82
2017-12-11T21:44:10.127Z,94963.53
2017-12-11T21:46:39.184Z,94957.66
2017-12-11T21:49:07.721Z,94966.04
2017-12-11T21:51:35.741Z,94971.89
2017-12-11T21:54:03.301Z,94970.16
2017-12-11T21:56:30.760Z,94962.36
2017-12-11T21:58:58.264Z,94966.03
2017-12-11T22:01:25.755Z,94959.91
2017-12-11T22:03:53.238Z,94976.78
2017-12-11T22:06:21.428Z,94992.48
2017-12-11T22:08:49.201Z,94992.31
2017-12-11T22:11:17.000Z,94994.88
2017-12-11T22:13:44.625Z,94996.14
2017-12-11T22:16:13.004Z,95003.72
2017-12-11T22:18:40.642Z,95011.51
2017-12-11T22:21:08.409Z,95015.66
2017-12-11T22:23:36.954Z,95033.08
2017-12-11T22:26:04.570Z,95039.76
2017-12-11T22:28:32.103Z,95045.98
2017-12-11T22:30:59.587Z,95035.22
2017-12-11T22:33:27.088Z,95025.66
2017-12-11T22:35:54.968Z,95039.03
2017-12-11T22:38:22.452Z,95029.44
2017-12-11T22:40:49.947Z,95053.84
2017-12-11T22:43:18.249Z,95049.11
2017-12-11T22:45:45.771Z,95054.48
2017-12-11T22:48:13.427Z,95057.46
2017-12-11T22:50:40.941Z,95068.60
2017-12-11T22:53:08.606Z,95077.16
2017-12-11T22:55:36.384Z,95059.08
2017-12-11T22:58:04.048Z,95072.94
2017-12-11T23:00:32.326Z,95078.95
2017-12-11T23:02:59.805Z,95093.73
2017-12-11T23:05:28.032Z,95089.31
2017-12-11T23:07:55.516Z,95093.10
2017-12-11T23:10:23.018Z,95113.20
2017-12-11T23:12:50.470Z,95114.72
2017-12-11T23:15:17.939Z,95129.26
2017-12-11T23:17:45.441Z,95135.59
2017-12-11T23:20:12.938Z,95135.16
2017-12-11T23:22:40.871Z,95155.49
2017-12-11T23:25:08.327Z,95146.86
2017-12-11T23:27:35.932Z,95156.64
2017-12-11T23:30:03.442Z,95162.28
2017-12-11T23:32:30.902Z,95156.05
2017-12-11T23:34:58.387Z,95157.19
2017-12-11T23:37:25.859Z,95153.20
2017-12-11T23:39:53.326Z,95158.38
2017-12-11T23:42:20.809Z,95166.33
2017-12-11T23:44:48.264Z,95176.13
2017-12-11T23:47:15.756Z,95186.76
2017-12-11T23:49:43.205Z,95194.29
2017-12-11T23:52:10.778Z,95197.68
2017-12-11T23:54:38.436Z,95190.58
2017-12-11T23:57:05.885Z,95194.97
2017-12-11T23:59:33.424Z,95195.95
